Time;durP1;ratioP1;P1;durP2;ratioP2;P2;SDS_P1;SDS_P2;PMS_P1;PMS_P2;Temp;Humidity;BMP_temperature;BMP_pressure;BME280_temperature;BME280_humidity;BME280_pressure;Samples;Min_cycle;Max_cycle;Signal;HPM_P1;HPM_P2
2022/01/11 00:00:54;;;;;;;8.80;5.82;;;6.80;99.90;;;;;;4937843;29;20028;-74
2022/01/11 00:03:20;;;;;;;9.63;5.80;;;6.80;99.90;;;;;;4937558;29;20024;-74
2022/01/11 00:08:18;;;;;;;;;;;6.80;99.90;;;;;;4937726;29;20412;-74
2022/01/11 00:10:53;;;;;;;9.48;6.20;;;6.70;99.90;;;;;;4937434;29;19907;-74
2022/01/11 00:13:20;;;;;;;8.00;5.97;;;6.70;99.90;;;;;;4937386;29;20043;-74
2022/01/11 00:15:47;;;;;;;9.25;5.80;;;6.70;99.90;;;;;;4920128;29;20027;-74
2022/01/11 00:18:14;;;;;;;7.97;5.60;;;6.70;99.90;;;;;;4937440;29;20036;-73
2022/01/11 00:20:40;;;;;;;8.50;6.10;;;6.70;99.90;;;;;;4937085;29;20099;-74
2022/01/11 00:25:44;;;;;;;9.70;5.55;;;6.60;99.90;;;;;;4937428;29;20062;-74
2022/01/11 00:28:12;;;;;;;10.00;5.95;;;6.50;99.90;;;;;;4937309;29;20125;-74
2022/01/11 00:30:41;;;;;;;8.77;5.97;;;6.50;99.90;;;;;;4936897;29;20071;-74
2022/01/11 00:33:11;;;;;;;10.18;6.35;;;6.50;99.90;;;;;;4936813;29;20112;-74
2022/01/11 00:35:45;;;;;;;9.48;6.40;;;6.50;99.90;;;;;;4936819;29;20023;-73
2022/01/11 00:38:15;;;;;;;10.38;6.15;;;6.40;99.90;;;;;;4936483;29;20042;-74
2022/01/11 00:40:55;;;;;;;10.68;6.57;;;6.40;99.90;;;;;;4936354;29;20396;-74
2022/01/11 00:43:23;;;;;;;10.52;6.53;;;6.40;99.90;;;;;;4936770;29;20024;-74
2022/01/11 00:45:50;;;;;;;10.35;7.07;;;6.40;99.90;;;;;;4937007;29;20028;-74
2022/01/11 00:48:16;;;;;;;8.35;5.88;;;6.40;99.90;;;;;;4936623;29;20028;-74
2022/01/11 00:50:43;;;;;;;10.43;6.32;;;6.40;99.90;;;;;;4936510;29;20032;-74
2022/01/11 00:53:10;;;;;;;10.32;6.88;;;6.40;99.90;;;;;;4936317;29;20049;-74
2022/01/11 00:55:38;;;;;;;11.18;7.00;;;6.30;99.90;;;;;;4936187;29;20047;-73
2022/01/11 00:58:04;;;;;;;10.15;6.78;;;6.30;99.90;;;;;;4936075;29;20599;-75
2022/01/11 01:00:33;;;;;;;13.05;6.57;;;6.30;99.90;;;;;;4936380;29;20058;-74
2022/01/11 01:02:59;;;;;;;12.68;6.55;;;6.30;99.90;;;;;;4935974;29;20028;-73
2022/01/11 01:05:25;;;;;;;9.43;6.43;;;6.30;99.90;;;;;;4936578;29;20083;-74
2022/01/11 01:07:52;;;;;;;9.57;6.20;;;6.30;99.90;;;;;;4936737;29;20083;-74
2022/01/11 01:10:26;;;;;;;9.35;6.22;;;6.30;99.90;;;;;;4936290;29;20055;-73
2022/01/11 01:12:53;;;;;;;9.93;5.93;;;6.30;99.90;;;;;;4936219;29;20023;-74
2022/01/11 01:15:20;;;;;;;8.75;6.18;;;6.30;99.90;;;;;;4936128;29;20034;-74
2022/01/11 01:17:45;;;;;;;10.27;6.65;;;6.30;99.90;;;;;;4936193;29;20032;-74
2022/01/11 01:20:12;;;;;;;18.40;7.25;;;6.30;99.90;;;;;;4936327;29;20055;-74
2022/01/11 01:22:38;;;;;;;11.32;7.20;;;6.30;99.90;;;;;;4936260;29;20086;-74
2022/01/11 01:25:04;;;;;;;12.25;6.80;;;6.30;99.90;;;;;;4936193;29;21044;-74
2022/01/11 01:27:30;;;;;;;10.85;6.90;;;6.30;99.90;;;;;;4919084;29;20495;-74
2022/01/11 01:29:56;;;;;;;9.88;6.50;;;6.30;99.90;;;;;;4936122;29;20023;-73
2022/01/11 01:32:23;;;;;;;10.50;7.28;;;6.30;99.90;;;;;;4935701;29;20500;-74
2022/01/11 01:34:50;;;;;;;13.00;6.50;;;6.30;99.90;;;;;;4935515;29;20055;-74
2022/01/11 01:37:16;;;;;;;10.45;6.68;;;6.20;99.90;;;;;;4936043;29;20030;-74
2022/01/11 01:39:42;;;;;;;8.95;5.90;;;6.20;99.90;;;;;;4936242;29;20032;-74
2022/01/11 01:42:11;;;;;;;10.85;6.68;;;6.20;99.90;;;;;;4936251;29;20039;-74
2022/01/11 01:44:37;;;;;;;11.85;6.65;;;6.20;99.90;;;;;;4935801;29;20416;-74
2022/01/11 01:47:03;;;;;;;10.27;6.72;;;6.20;99.90;;;;;;4935764;29;20520;-73
2022/01/11 01:49:31;;;;;;;11.73;7.05;;;6.20;99.90;;;;;;4935734;29;20042;-75
2022/01/11 01:51:57;;;;;;;10.23;6.25;;;6.10;99.90;;;;;;4935521;29;20392;-74
2022/01/11 01:54:24;;;;;;;9.93;6.15;;;6.10;99.90;;;;;;4935995;29;20027;-74
2022/01/11 01:56:51;;;;;;;10.80;5.95;;;6.10;99.90;;;;;;4918649;29;20413;-74
2022/01/11 01:59:16;;;;;;;10.77;6.45;;;6.10;99.90;;;;;;4935715;29;20028;-74
2022/01/11 02:01:47;;;;;;;13.20;6.38;;;6.10;99.90;;;;;;4935635;29;20078;-74
2022/01/11 02:04:15;;;;;;;10.20;6.45;;;6.10;99.90;;;;;;4923675;29;20049;-73
2022/01/11 02:06:41;;;;;;;12.30;6.70;;;6.10;99.90;;;;;;4930449;29;20063;-74
2022/01/11 02:09:10;;;;;;;11.05;6.38;;;6.10;99.90;;;;;;4930965;29;20055;-73
2022/01/11 02:11:35;;;;;;;10.80;6.32;;;6.10;99.90;;;;;;4932889;29;20067;-73
2022/01/11 02:14:01;;;;;;;11.05;6.55;;;6.10;99.90;;;;;;4916461;29;20493;-74
2022/01/11 02:16:27;;;;;;;10.80;6.32;;;6.10;99.90;;;;;;4916485;29;20462;-74
2022/01/11 02:18:53;;;;;;;8.88;6.10;;;6.10;99.90;;;;;;4916297;29;20055;-74
2022/01/11 02:21:20;;;;;;;14.02;6.70;;;6.00;99.90;;;;;;4917290;29;20473;-74
2022/01/11 02:23:46;;;;;;;9.40;6.25;;;6.00;99.90;;;;;;4923290;29;20547;-73
2022/01/11 02:26:12;;;;;;;10.43;6.18;;;6.00;99.90;;;;;;4934572;29;20477;-73
2022/01/11 02:28:39;;;;;;;9.98;6.53;;;6.10;99.90;;;;;;4927879;29;20108;-74
2022/01/11 02:31:08;;;;;;;10.45;6.55;;;6.00;99.90;;;;;;4915654;29;20505;-74
2022/01/11 02:33:48;;;;;;;8.20;5.80;;;6.00;99.90;;;;;;4934832;29;20063;-73
2022/01/11 02:36:18;;;;;;;9.80;6.22;;;6.00;99.90;;;;;;4934651;29;20020;-73
2022/01/11 02:38:48;;;;;;;13.00;6.32;;;6.00;99.90;;;;;;4916175;29;20055;-74
2022/01/11 02:41:14;;;;;;;14.18;7.30;;;6.00;99.90;;;;;;4916157;29;20024;-74
2022/01/11 02:43:48;;;;;;;9.05;5.53;;;6.00;99.90;;;;;;4916516;29;20024;-73
2022/01/11 02:46:21;;;;;;;10.48;5.78;;;6.00;99.90;;;;;;4920678;29;20036;-74
2022/01/11 02:48:48;;;;;;;9.68;5.90;;;6.00;99.90;;;;;;4933956;29;20047;-74
2022/01/11 02:51:17;;;;;;;11.00;6.25;;;6.00;99.90;;;;;;4938732;29;20111;-73
2022/01/11 02:53:45;;;;;;;9.25;5.82;;;6.00;99.90;;;;;;4930744;29;20036;-73
2022/01/11 02:56:12;;;;;;;11.35;7.00;;;6.00;99.90;;;;;;4919963;29;20024;-73
2022/01/11 02:58:38;;;;;;;17.02;6.22;;;5.90;99.90;;;;;;4919990;29;20043;-74
2022/01/11 03:01:06;;;;;;;13.48;5.65;;;5.90;99.90;;;;;;4919970;29;20020;-74
2022/01/11 03:03:32;;;;;;;9.40;5.97;;;5.90;99.90;;;;;;4919758;29;20028;-74
2022/01/11 03:06:02;;;;;;;13.52;6.80;;;5.90;99.90;;;;;;4933287;29;20034;-73
2022/01/11 03:08:31;;;;;;;10.20;5.72;;;5.90;99.90;;;;;;4934711;29;20044;-74
2022/01/11 03:10:57;;;;;;;10.32;6.40;;;5.90;99.90;;;;;;4928190;29;20401;-73
2022/01/11 03:13:24;;;;;;;15.15;5.95;;;5.90;99.90;;;;;;4938520;29;20591;-74
2022/01/11 03:15:50;;;;;;;11.93;6.28;;;5.90;99.90;;;;;;4932197;29;20036;-74
2022/01/11 03:18:17;;;;;;;13.55;5.70;;;5.90;99.90;;;;;;4919595;29;20032;-74
2022/01/11 03:20:45;;;;;;;9.05;5.80;;;5.90;99.90;;;;;;4919537;29;20038;-74
2022/01/11 03:23:12;;;;;;;10.02;6.15;;;5.90;99.90;;;;;;4920248;29;20080;-74
2022/01/11 03:25:38;;;;;;;9.27;6.13;;;5.90;99.90;;;;;;4933489;29;20038;-74
2022/01/11 03:28:04;;;;;;;10.30;6.55;;;5.90;99.90;;;;;;4926182;29;20385;-74
2022/01/11 03:30:31;;;;;;;14.45;8.00;;;5.90;99.90;;;;;;4926317;29;20051;-74
2022/01/11 03:32:57;;;;;;;12.48;7.13;;;5.90;99.90;;;;;;4937836;29;20044;-74
2022/01/11 03:35:23;;;;;;;17.05;7.60;;;5.80;99.90;;;;;;4938142;29;20031;-74
2022/01/11 03:37:50;;;;;;;13.52;7.13;;;5.90;99.90;;;;;;4921180;29;20421;-74
2022/01/11 03:40:23;;;;;;;9.27;6.38;;;5.90;99.90;;;;;;4919136;29;20067;-74
2022/01/11 03:42:49;;;;;;;11.35;6.40;;;5.90;99.90;;;;;;4919263;29;20539;-74
2022/01/11 03:45:16;;;;;;;10.20;6.22;;;5.90;99.90;;;;;;4918705;29;20039;-74
2022/01/11 03:47:43;;;;;;;13.93;6.82;;;5.90;99.90;;;;;;4926054;29;20042;-74
2022/01/11 03:50:11;;;;;;;9.65;5.60;;;5.90;99.90;;;;;;4918894;29;20024;-74
2022/01/11 03:52:38;;;;;;;8.93;5.82;;;5.90;99.90;;;;;;4926124;29;20028;-75
2022/01/11 03:55:11;;;;;;;10.35;6.90;;;5.90;99.90;;;;;;4937655;29;20042;-73
2022/01/11 03:57:37;;;;;;;8.70;6.05;;;5.90;99.90;;;;;;4922757;29;20107;-73
2022/01/11 04:00:09;;;;;;;15.13;6.20;;;5.90;99.90;;;;;;4918489;29;20456;-74
2022/01/11 04:02:35;;;;;;;8.18;5.95;;;5.90;99.90;;;;;;4918580;29;20103;-73
2022/01/11 04:05:02;;;;;;;9.18;6.32;;;6.00;99.90;;;;;;4901710;29;20446;-74
2022/01/11 04:07:28;;;;;;;8.57;5.65;;;6.00;99.90;;;;;;4927022;29;20032;-74
2022/01/11 04:09:56;;;;;;;11.55;5.72;;;6.00;99.90;;;;;;4921686;29;20054;-73
2022/01/11 04:12:23;;;;;;;7.00;4.90;;;6.00;99.90;;;;;;4925187;29;20086;-73
2022/01/11 04:14:48;;;;;;;9.70;5.00;;;6.10;99.90;;;;;;4937524;29;20481;-74
2022/01/11 04:17:14;;;;;;;7.55;5.07;;;6.10;99.90;;;;;;4937979;29;20024;-74
2022/01/11 04:19:41;;;;;;;6.65;4.30;;;6.20;99.90;;;;;;4921433;29;20140;-74
2022/01/11 04:22:06;;;;;;;8.32;5.28;;;6.20;99.90;;;;;;4918424;29;20042;-74
2022/01/11 04:24:33;;;;;;;7.65;4.90;;;6.20;99.90;;;;;;4918548;29;20477;-74
2022/01/11 04:26:58;;;;;;;13.88;5.75;;;6.30;99.90;;;;;;4918343;29;20020;-74
2022/01/11 04:29:24;;;;;;;9.20;4.70;;;6.20;99.90;;;;;;4918371;29;20028;-74
2022/01/11 04:31:50;;;;;;;9.77;5.25;;;6.30;99.90;;;;;;4918098;29;20052;-74
2022/01/11 04:34:16;;;;;;;7.53;5.22;;;6.30;99.90;;;;;;4918398;29;20533;-74
2022/01/11 04:36:42;;;;;;;7.25;4.70;;;6.30;99.90;;;;;;4918243;29;20429;-74
2022/01/11 04:39:10;;;;;;;8.35;4.80;;;6.30;99.90;;;;;;4917924;29;20025;-73
2022/01/11 04:41:37;;;;;;;9.27;5.30;;;6.30;99.90;;;;;;4918367;29;20039;-74
2022/01/11 04:44:03;;;;;;;7.70;4.97;;;6.40;99.90;;;;;;4918364;29;20115;-74
2022/01/11 04:46:29;;;;;;;8.02;4.85;;;6.40;99.90;;;;;;4917948;29;20111;-73
2022/01/11 04:48:55;;;;;;;6.60;4.50;;;6.60;99.90;;;;;;4918250;29;20107;-73
2022/01/11 04:51:21;;;;;;;7.68;4.82;;;6.50;99.90;;;;;;4918199;29;20032;-73
2022/01/11 04:53:47;;;;;;;8.23;5.15;;;6.50;99.90;;;;;;4918235;29;20092;-74
2022/01/11 04:56:14;;;;;;;6.07;4.10;;;6.50;99.90;;;;;;4918162;29;20413;-73
2022/01/11 04:58:39;;;;;;;6.80;4.10;;;6.50;99.90;;;;;;4918109;29;20384;-73
2022/01/11 05:01:05;;;;;;;15.52;3.88;;;6.50;99.90;;;;;;4917813;29;20020;-73
2022/01/11 05:03:31;;;;;;;6.72;4.90;;;6.50;99.90;;;;;;4917942;29;20111;-74
2022/01/11 05:05:57;;;;;;;5.65;4.00;;;6.60;99.90;;;;;;4917646;29;20025;-74
2022/01/11 05:08:23;;;;;;;7.75;4.45;;;6.50;99.90;;;;;;4917498;29;20027;-75
2022/01/11 05:10:48;;;;;;;9.25;4.85;;;6.60;99.90;;;;;;4917224;29;20737;-74
2022/01/11 05:13:17;;;;;;;8.02;4.95;;;6.60;99.90;;;;;;4917587;29;20082;-74
2022/01/11 05:15:43;;;;;;;7.65;4.85;;;6.50;99.90;;;;;;4917525;29;20028;-74
2022/01/11 05:18:09;;;;;;;8.32;4.70;;;6.40;99.90;;;;;;4917798;29;20028;-74
2022/01/11 05:20:36;;;;;;;7.93;4.65;;;6.50;99.90;;;;;;4917252;29;20035;-74
2022/01/11 05:23:03;;;;;;;7.45;4.20;;;6.60;99.90;;;;;;4917250;29;20051;-73
2022/01/11 05:25:29;;;;;;;6.85;4.70;;;6.60;99.90;;;;;;4917175;29;20039;-74
2022/01/11 05:27:55;;;;;;;6.97;3.92;;;6.50;99.90;;;;;;4917042;29;20095;-73
2022/01/11 05:30:22;;;;;;;6.47;4.22;;;6.60;99.90;;;;;;4916920;29;20062;-74
2022/01/11 05:32:48;;;;;;;6.13;4.00;;;6.70;99.90;;;;;;4916657;29;20481;-74
2022/01/11 05:35:15;;;;;;;8.13;4.75;;;6.70;99.90;;;;;;4917080;29;20389;-74
2022/01/11 05:37:43;;;;;;;6.82;4.07;;;6.70;99.90;;;;;;4917029;29;20373;-74
2022/01/11 05:40:10;;;;;;;5.72;4.10;;;6.70;99.90;;;;;;4936082;29;20445;-74
2022/01/11 05:42:36;;;;;;;8.30;4.60;;;6.60;99.90;;;;;;4936205;29;20055;-73
2022/01/11 05:45:03;;;;;;;7.30;4.03;;;6.60;99.90;;;;;;4918788;29;20027;-73
2022/01/11 05:47:29;;;;;;;6.38;3.83;;;6.60;99.90;;;;;;4935836;29;20035;-74
2022/01/11 05:49:55;;;;;;;8.52;4.13;;;6.60;99.90;;;;;;4935771;29;20385;-74
2022/01/11 05:52:20;;;;;;;6.10;3.95;;;6.70;99.90;;;;;;4917487;29;20421;-74
2022/01/11 05:54:46;;;;;;;6.97;4.68;;;6.70;99.90;;;;;;4916876;29;20473;-74
2022/01/11 05:57:12;;;;;;;11.90;4.20;;;6.60;99.90;;;;;;4916731;29;20024;-74
2022/01/11 05:59:37;;;;;;;6.85;4.68;;;6.70;99.90;;;;;;4916332;29;20532;-73
2022/01/11 06:02:03;;;;;;;6.35;4.03;;;6.70;99.90;;;;;;4916524;29;20465;-74
2022/01/11 06:04:29;;;;;;;8.88;5.38;;;6.60;99.90;;;;;;4916569;29;20598;-74
2022/01/11 06:06:55;;;;;;;5.80;4.15;;;6.60;99.90;;;;;;4916604;29;20032;-73
2022/01/11 06:09:26;;;;;;;7.20;4.40;;;6.60;99.90;;;;;;4916467;29;20043;-74
2022/01/11 06:11:52;;;;;;;11.18;4.40;;;6.60;99.90;;;;;;4916143;29;20103;-74
2022/01/11 06:14:18;;;;;;;6.75;4.22;;;6.50;99.90;;;;;;4915770;29;20047;-74
2022/01/11 06:16:44;;;;;;;8.13;4.45;;;6.60;99.90;;;;;;4899470;29;20035;-73
2022/01/11 06:19:09;;;;;;;10.48;4.95;;;6.50;99.90;;;;;;4916378;29;20024;-73
2022/01/11 06:21:35;;;;;;;10.45;4.80;;;6.50;99.90;;;;;;4916051;29;20032;-74
2022/01/11 06:24:01;;;;;;;17.67;5.03;;;6.50;99.90;;;;;;4916703;29;20122;-74
2022/01/11 06:26:28;;;;;;;8.75;4.63;;;6.40;99.90;;;;;;4916269;29;20029;-74
2022/01/11 06:28:54;;;;;;;8.05;4.70;;;6.40;99.90;;;;;;4916150;29;20031;-74
2022/01/11 06:31:20;;;;;;;9.40;4.57;;;6.50;99.90;;;;;;4916172;29;20076;-74
2022/01/11 06:33:46;;;;;;;7.22;4.50;;;6.50;99.90;;;;;;4916060;29;20036;-74
2022/01/11 06:36:11;;;;;;;8.85;4.78;;;6.50;99.90;;;;;;4916071;29;20099;-75
2022/01/11 06:38:39;;;;;;;10.18;5.35;;;6.40;99.90;;;;;;4915898;29;20043;-75
2022/01/11 06:41:05;;;;;;;10.98;6.03;;;6.40;99.90;;;;;;4915639;29;20021;-75
2022/01/11 06:43:30;;;;;;;8.50;5.45;;;6.30;99.90;;;;;;4915957;29;20035;-75
2022/01/11 06:45:56;;;;;;;9.65;5.22;;;6.30;99.90;;;;;;4915494;29;20024;-73
2022/01/11 06:48:22;;;;;;;8.30;5.07;;;6.20;99.90;;;;;;4899092;29;20516;-75
2022/01/11 06:50:47;;;;;;;9.75;5.45;;;6.20;99.90;;;;;;4916016;29;20109;-75
2022/01/11 06:53:13;;;;;;;13.02;5.68;;;6.20;99.90;;;;;;4914246;29;20032;-74
2022/01/11 06:55:39;;;;;;;9.27;5.80;;;6.10;99.90;;;;;;4914608;29;20031;-74
2022/01/11 06:58:05;;;;;;;9.35;5.45;;;6.10;99.90;;;;;;4915110;29;20024;-74
2022/01/11 07:00:30;;;;;;;16.25;4.80;;;6.10;99.90;;;;;;4899320;29;20055;-74
2022/01/11 07:02:56;;;;;;;8.77;5.40;;;6.10;99.90;;;;;;4916389;29;20029;-74
2022/01/11 07:05:22;;;;;;;9.70;5.40;;;6.00;99.90;;;;;;4916020;29;20032;-74
2022/01/11 07:07:47;;;;;;;8.85;5.22;;;6.00;99.90;;;;;;4916103;29;20384;-74
2022/01/11 07:10:13;;;;;;;9.05;5.30;;;6.00;99.90;;;;;;4915599;29;20100;-74
2022/01/11 07:12:39;;;;;;;7.85;4.88;;;6.00;99.90;;;;;;4914922;29;20040;-74
2022/01/11 07:15:06;;;;;;;11.15;6.15;;;6.20;99.90;;;;;;4915261;29;20024;-75
2022/01/11 07:17:31;;;;;;;9.05;5.55;;;6.40;99.90;;;;;;4915096;29;20438;-74
2022/01/11 07:19:57;;;;;;;11.15;6.55;;;6.50;99.90;;;;;;4899034;29;20056;-74
2022/01/11 07:22:23;;;;;;;14.50;6.93;;;6.60;99.90;;;;;;4916116;29;20024;-74
2022/01/11 07:24:49;;;;;;;10.10;6.03;;;6.80;99.90;;;;;;4915976;29;20437;-76
2022/01/11 07:27:15;;;;;;;9.38;5.70;;;6.90;99.90;;;;;;4915792;29;20032;-75
2022/01/11 07:29:41;;;;;;;11.15;6.63;;;7.00;99.90;;;;;;4915661;29;20036;-74
2022/01/11 07:32:07;;;;;;;13.70;6.65;;;7.10;99.90;;;;;;4916515;29;20052;-74
2022/01/11 07:34:33;;;;;;;9.30;5.65;;;7.20;99.90;;;;;;4919550;29;20454;-74
2022/01/11 07:36:59;;;;;;;11.15;6.32;;;7.40;99.90;;;;;;4902252;29;20064;-74
2022/01/11 07:39:25;;;;;;;11.32;6.40;;;7.40;99.90;;;;;;4919403;29;20141;-73
2022/01/11 07:41:51;;;;;;;10.55;6.22;;;7.40;99.90;;;;;;4901819;29;20032;-74
2022/01/11 07:44:17;;;;;;;10.60;6.20;;;7.70;99.90;;;;;;4919320;29;20020;-73
2022/01/11 07:46:44;;;;;;;9.23;6.47;;;7.80;99.90;;;;;;4902140;29;20532;-74
2022/01/11 07:49:10;;;;;;;14.32;6.57;;;7.80;99.90;;;;;;4919125;29;20044;-73
2022/01/11 07:51:36;;;;;;;11.10;6.22;;;7.90;99.90;;;;;;4901669;29;20422;-74
2022/01/11 07:54:03;;;;;;;22.42;7.18;;;7.90;99.90;;;;;;4918790;29;20063;-74
2022/01/11 07:56:28;;;;;;;10.20;6.47;;;8.10;99.90;;;;;;4919115;29;20051;-74
2022/01/11 07:58:54;;;;;;;13.95;8.00;;;8.40;99.90;;;;;;4919279;29;20481;-74
2022/01/11 08:01:20;;;;;;;10.77;6.75;;;8.60;99.90;;;;;;4919069;29;20052;-74
2022/01/11 08:03:46;;;;;;;14.27;6.80;;;8.70;99.90;;;;;;4919067;29;20028;-73
2022/01/11 08:06:13;;;;;;;14.20;7.95;;;9.00;99.90;;;;;;4919150;29;20039;-74
2022/01/11 08:08:39;;;;;;;9.90;6.57;;;8.90;99.90;;;;;;4918926;29;20354;-74
2022/01/11 08:11:05;;;;;;;10.95;6.40;;;8.90;99.90;;;;;;4919102;29;20060;-74
2022/01/11 08:13:30;;;;;;;10.73;6.10;;;8.80;99.90;;;;;;4918787;29;20453;-74
2022/01/11 08:15:56;;;;;;;14.93;7.38;;;9.00;99.90;;;;;;4918919;29;20084;-75
2022/01/11 08:18:22;;;;;;;11.43;6.45;;;9.40;99.90;;;;;;4918979;29;20111;-74
2022/01/11 08:20:48;;;;;;;10.57;7.00;;;9.60;99.90;;;;;;4918589;29;20032;-74
2022/01/11 08:23:16;;;;;;;10.40;6.72;;;9.70;99.90;;;;;;4918752;29;20028;-74
2022/01/11 08:25:42;;;;;;;12.25;6.80;;;9.60;99.90;;;;;;4918706;29;20032;-73
2022/01/11 08:28:09;;;;;;;12.55;7.50;;;9.70;99.90;;;;;;4918916;29;20028;-73
2022/01/11 08:30:36;;;;;;;14.40;6.75;;;9.70;99.90;;;;;;4918307;29;20047;-74
2022/01/11 08:33:04;;;;;;;11.50;7.28;;;9.80;99.90;;;;;;4900438;29;20445;-75
2022/01/11 08:35:31;;;;;;;11.50;6.32;;;9.80;99.90;;;;;;4918251;29;20119;-73
2022/01/11 08:37:57;;;;;;;10.35;6.57;;;10.00;99.90;;;;;;4901179;29;20043;-73
2022/01/11 08:40:23;;;;;;;12.15;7.53;;;9.70;99.90;;;;;;4900632;29;20477;-74
2022/01/11 08:42:49;;;;;;;12.25;8.45;;;10.10;99.90;;;;;;4917586;29;20611;-73
2022/01/11 08:45:15;;;;;;;15.63;8.63;;;10.10;99.90;;;;;;4917958;29;20140;-75
2022/01/11 08:47:41;;;;;;;11.98;7.55;;;10.40;99.90;;;;;;4917642;29;20095;-73
2022/01/11 08:50:11;;;;;;;16.15;8.50;;;10.60;99.90;;;;;;4917804;29;20031;-74
2022/01/11 08:52:38;;;;;;;12.88;8.05;;;10.60;99.90;;;;;;4920298;29;20175;-73
2022/01/11 08:55:04;;;;;;;13.57;8.40;;;11.20;99.90;;;;;;4918164;29;20032;-74
2022/01/11 08:57:30;;;;;;;11.57;7.32;;;11.60;99.90;;;;;;4917583;29;20481;-74
2022/01/11 08:59:55;;;;;;;18.75;8.05;;;11.80;99.90;;;;;;4920107;29;20035;-76
2022/01/11 09:02:21;;;;;;;12.55;8.15;;;11.70;99.90;;;;;;4900855;29;20521;-75
2022/01/11 09:04:48;;;;;;;12.25;7.65;;;11.70;99.90;;;;;;4917603;29;20115;-75
2022/01/11 09:07:14;;;;;;;14.95;7.53;;;11.90;99.90;;;;;;4917544;29;20022;-75
2022/01/11 09:09:39;;;;;;;14.90;8.23;;;12.10;99.80;;;;;;4917414;29;20459;-74
2022/01/11 09:12:08;;;;;;;14.55;7.55;;;11.90;99.50;;;;;;4918136;29;20134;-75
2022/01/11 09:14:34;;;;;;;15.00;8.23;;;12.00;99.30;;;;;;4917525;29;20036;-76
2022/01/11 09:17:02;;;;;;;18.55;8.90;;;11.60;99.70;;;;;;4917399;29;20030;-75
2022/01/11 09:19:29;;;;;;;17.15;8.30;;;11.60;99.90;;;;;;4900665;29;20084;-74
2022/01/11 09:21:55;;;;;;;12.05;7.93;;;11.50;99.90;;;;;;4917729;29;20029;-75
2022/01/11 09:24:21;;;;;;;17.10;8.73;;;11.10;99.70;;;;;;4917255;29;20689;-75
2022/01/11 09:26:48;;;;;;;16.00;7.60;;;11.00;99.90;;;;;;4916986;29;20055;-77
2022/01/11 09:29:15;;;;;;;12.88;7.88;;;11.00;99.60;;;;;;4917330;29;20035;-77
2022/01/11 09:31:41;;;;;;;15.93;8.82;;;10.50;99.90;;;;;;4916994;29;20051;-74
2022/01/11 09:34:07;;;;;;;23.67;9.45;;;10.40;99.90;;;;;;4917090;29;20040;-76
2022/01/11 09:36:33;;;;;;;16.60;8.85;;;10.30;99.90;;;;;;4916273;29;20099;-77
2022/01/11 09:38:59;;;;;;;17.80;9.45;;;10.40;99.90;;;;;;4916433;29;20024;-77
2022/01/11 09:41:24;;;;;;;18.58;9.82;;;10.40;99.90;;;;;;4916798;29;20082;-76
2022/01/11 09:43:50;;;;;;;19.75;12.05;;;10.50;99.90;;;;;;4916927;29;20067;-76
2022/01/11 09:46:16;;;;;;;20.48;10.00;;;10.40;99.90;;;;;;4919144;29;20039;-77
2022/01/11 09:48:43;;;;;;;22.65;9.80;;;10.10;99.90;;;;;;4916504;29;20028;-76
2022/01/11 09:51:09;;;;;;;19.73;10.13;;;10.20;99.90;;;;;;4916645;29;20013;-76
2022/01/11 09:53:35;;;;;;;22.15;10.40;;;10.40;99.90;;;;;;4916521;29;20481;-75
2022/01/11 09:56:08;;;;;;;18.73;10.63;;;10.10;99.90;;;;;;4918759;29;20031;-76
2022/01/11 09:58:35;;;;;;;21.92;10.68;;;10.20;99.90;;;;;;4916827;29;20027;-76
2022/01/11 10:01:03;;;;;;;19.40;10.13;;;10.50;99.90;;;;;;4916486;29;20380;-74
2022/01/11 10:03:29;;;;;;;20.05;10.98;;;10.40;99.90;;;;;;4932958;29;20034;-79
2022/01/11 10:05:55;;;;;;;22.23;10.40;;;10.40;99.90;;;;;;4935351;29;20024;-78
2022/01/11 10:08:38;;;;;;;20.50;9.98;;;10.20;99.90;;;;;;4935242;29;20031;-79
2022/01/11 10:11:04;;;;;;;17.70;9.68;;;10.30;99.90;;;;;;4935191;29;20027;-79
2022/01/11 10:13:34;;;;;;;18.20;9.93;;;10.30;99.90;;;;;;4935207;29;20039;-78
2022/01/11 10:16:27;;;;;;;17.25;10.57;;;10.30;99.90;;;;;;4935308;29;20024;-79
2022/01/11 10:18:54;;;;;;;18.70;10.25;;;10.50;99.90;;;;;;4922997;29;20028;-79
2022/01/11 10:21:30;;;;;;;19.17;10.10;;;10.30;99.90;;;;;;4901758;29;20408;-79
2022/01/11 10:23:56;;;;;;;19.05;10.73;;;10.30;99.90;;;;;;4915958;29;20028;-79
2022/01/11 10:26:53;;;;;;;19.77;11.35;;;10.40;99.90;;;;;;4915711;29;20033;-77
2022/01/11 10:29:43;;;;;;;28.75;11.07;;;10.50;99.90;;;;;;4918213;29;20043;-79
2022/01/11 10:32:33;;;;;;;19.38;10.15;;;10.40;99.90;;;;;;4933236;29;20048;-78
2022/01/11 10:35:33;;;;;;;19.58;9.85;;;10.60;99.90;;;;;;4922958;29;20414;-78
2022/01/11 10:38:01;;;;;;;21.38;10.75;;;10.70;99.60;;;;;;4933217;29;20035;-79
2022/01/11 10:40:35;;;;;;;19.73;11.23;;;10.80;99.80;;;;;;4917648;29;20046;-79
2022/01/11 10:43:22;;;;;;;24.45;11.07;;;10.90;99.90;;;;;;4934636;29;20488;-79
2022/01/11 10:45:58;;;;;;;20.05;10.95;;;10.90;99.90;;;;;;4934909;29;20103;-79
2022/01/11 10:48:27;;;;;;;18.55;10.88;;;10.70;99.90;;;;;;4934314;29;20032;-79
2022/01/11 10:51:01;;;;;;;19.23;11.57;;;10.90;99.90;;;;;;4934697;29;20024;-79
2022/01/11 10:53:32;;;;;;;20.98;11.50;;;10.50;99.70;;;;;;4934523;29;20043;-78
2022/01/11 10:56:00;;;;;;;21.20;11.43;;;10.80;99.90;;;;;;4934204;29;20036;-79
2022/01/11 10:58:36;;;;;;;25.77;11.77;;;11.00;99.90;;;;;;4917334;29;20480;-79
2022/01/11 11:01:04;;;;;;;21.80;11.23;;;10.90;99.40;;;;;;4934507;29;20381;-78
2022/01/11 11:03:32;;;;;;;23.00;10.38;;;10.70;99.70;;;;;;4932679;29;20055;-76
2022/01/11 11:06:00;;;;;;;21.83;11.20;;;10.80;99.90;;;;;;4915135;29;20535;-76
2022/01/11 11:08:36;;;;;;;19.55;11.32;;;10.70;99.60;;;;;;4917666;29;20028;-76
2022/01/11 11:11:08;;;;;;;19.80;10.73;;;10.70;99.80;;;;;;4919050;29;20076;-76
2022/01/11 11:13:36;;;;;;;19.23;11.13;;;10.50;99.50;;;;;;4918785;29;20067;-76
2022/01/11 11:16:21;;;;;;;24.88;12.38;;;10.20;99.50;;;;;;4918793;29;20156;-76
2022/01/11 11:18:48;;;;;;;21.90;11.13;;;10.10;99.50;;;;;;4920764;29;20033;-77
2022/01/11 11:21:18;;;;;;;20.08;10.98;;;10.40;98.70;;;;;;4918378;29;20012;-74
2022/01/11 11:23:45;;;;;;;17.90;10.55;;;10.40;97.80;;;;;;4901647;29;20401;-75
2022/01/11 11:26:12;;;;;;;30.40;15.43;;;10.40;98.00;;;;;;4918596;29;20028;-73
2022/01/11 11:28:39;;;;;;;23.08;11.60;;;10.60;98.50;;;;;;4918781;29;20729;-74
2022/01/11 11:31:05;;;;;;;19.50;10.93;;;11.00;98.40;;;;;;4918829;29;20048;-75
2022/01/11 11:33:33;;;;;;;20.65;11.18;;;11.20;98.50;;;;;;4918516;29;20131;-74
2022/01/11 11:35:59;;;;;;;21.10;11.77;;;11.30;98.10;;;;;;4917694;29;20024;-74
2022/01/11 11:38:30;;;;;;;18.05;10.40;;;11.60;97.90;;;;;;4915844;29;20489;-75
2022/01/11 11:40:56;;;;;;;21.02;11.02;;;11.50;97.00;;;;;;4918032;29;20109;-75
2022/01/11 11:43:22;;;;;;;18.63;10.80;;;10.90;97.70;;;;;;4904472;29;20640;-75
2022/01/11 11:45:49;;;;;;;18.92;10.68;;;11.10;97.60;;;;;;4901653;29;20115;-76
2022/01/11 11:48:23;;;;;;;17.98;10.38;;;11.30;97.60;;;;;;4918821;29;20496;-75
2022/01/11 11:51:07;;;;;;;19.42;9.82;;;11.40;96.80;;;;;;4903031;29;20408;-74
2022/01/11 11:53:38;;;;;;;20.60;11.43;;;11.10;97.10;;;;;;4918023;29;20040;-75
2022/01/11 11:56:26;;;;;;;18.35;10.73;;;11.10;97.30;;;;;;4918075;29;20024;-76
2022/01/11 11:58:57;;;;;;;22.30;11.27;;;11.00;96.90;;;;;;4934777;29;20031;-74
2022/01/11 12:01:45;;;;;;;22.90;11.60;;;11.00;97.30;;;;;;4921376;29;20079;-76
2022/01/11 12:04:15;;;;;;;22.52;11.38;;;10.70;97.60;;;;;;4928385;29;20062;-75
2022/01/11 12:06:42;;;;;;;18.20;10.48;;;10.50;97.30;;;;;;4917946;29;20027;-75
2022/01/11 12:09:14;;;;;;;22.05;11.30;;;10.10;97.90;;;;;;4916083;29;20067;-75
2022/01/11 12:11:44;;;;;;;35.50;11.25;;;10.10;97.80;;;;;;4918006;29;20095;-75
2022/01/11 12:14:33;;;;;;;22.98;11.32;;;10.00;97.90;;;;;;4920965;29;20040;-77
2022/01/11 12:17:23;;;;;;;19.58;10.30;;;9.70;98.10;;;;;;4917203;29;20338;-77
2022/01/11 12:19:52;;;;;;;20.65;10.77;;;9.30;98.70;;;;;;4926449;29;20024;-77
2022/01/11 12:22:21;;;;;;;21.95;11.90;;;9.10;98.60;;;;;;4917522;29;20028;-77
2022/01/11 12:24:49;;;;;;;19.23;10.88;;;8.90;98.60;;;;;;4901006;29;20071;-78
2022/01/11 12:27:19;;;;;;;19.08;11.25;;;8.90;98.80;;;;;;4921700;29;20068;-76
2022/01/11 12:30:16;;;;;;;25.27;12.18;;;8.80;99.20;;;;;;4917361;29;20375;-76
2022/01/11 12:33:11;;;;;;;23.27;10.60;;;8.70;99.30;;;;;;4916615;29;20082;-77
2022/01/11 12:35:56;;;;;;;21.25;11.35;;;8.60;99.40;;;;;;4920807;29;20012;-77
2022/01/11 12:38:23;;;;;;;21.80;10.85;;;8.70;99.90;;;;;;4918651;29;20457;-75
2022/01/11 12:40:49;;;;;;;16.08;9.85;;;8.70;99.60;;;;;;4915479;29;20047;-75
2022/01/11 12:43:38;;;;;;;21.38;11.38;;;8.60;99.40;;;;;;4899309;29;20028;-75
2022/01/11 12:46:09;;;;;;;26.25;13.45;;;8.60;99.80;;;;;;4930754;29;20027;-76
2022/01/11 12:48:44;;;;;;;21.35;11.68;;;8.60;99.90;;;;;;4936751;29;20024;-75
2022/01/11 12:51:31;;;;;;;21.92;12.30;;;8.70;99.90;;;;;;4920213;29;20036;-76
2022/01/11 12:54:35;;;;;;;22.77;12.55;;;8.70;99.90;;;;;;4936457;29;20374;-76
2022/01/11 12:57:09;;;;;;;25.33;12.85;;;8.60;99.90;;;;;;4919525;29;20484;-75